createdAt,value
2023-03-10T00:04:43.166Z,27.2
2023-03-10T00:10:21.669Z,27.1
2023-03-10T00:16:14.768Z,27.1
2023-03-10T00:22:07.997Z,27.1
2023-03-10T00:27:45.040Z,27
2023-03-10T00:33:39.243Z,26.9
2023-03-10T00:39:17.615Z,26.9
2023-03-10T00:45:10.890Z,26.9
2023-03-10T00:50:32.862Z,26.9
2023-03-10T00:56:25.504Z,26.8
2023-03-10T01:02:18.269Z,26.8
2023-03-10T01:08:11.442Z,26.8
2023-03-10T01:14:04.946Z,26.7
2023-03-10T01:19:57.946Z,26.7
2023-03-10T01:25:35.032Z,26.6
2023-03-10T01:31:12.610Z,26.6
2023-03-10T01:36:35.505Z,26.6
2023-03-10T01:42:14.076Z,26.6
2023-03-10T01:48:07.438Z,26.5
2023-03-10T01:54:00.412Z,26.4
2023-03-10T01:59:53.341Z,26.4
2023-03-10T02:05:46.591Z,26.4
2023-03-10T02:10:41.951Z,26.4
2023-03-10T02:16:34.888Z,26.4
2023-03-10T02:22:12.813Z,26.3
2023-03-10T02:28:14.236Z,26.3
2023-03-10T02:34:18.506Z,26.3
2023-03-10T02:39:56.255Z,26.2
2023-03-10T02:45:33.122Z,26.2
2023-03-10T02:50:55.916Z,26.3
2023-03-10T02:56:33.555Z,26.3
2023-03-10T03:02:26.397Z,26.4
2023-03-10T03:08:02.949Z,26.4
2023-03-10T03:19:05.083Z,26.3
2023-03-10T03:30:21.005Z,26.5
2023-03-10T03:36:15.985Z,26.9
2023-03-10T03:41:54.078Z,27.3
2023-03-10T03:47:46.432Z,27.4
2023-03-10T03:53:43.025Z,27.7
2023-03-10T03:59:35.253Z,27.8
2023-03-10T04:10:49.884Z,27.9
2023-03-10T04:16:43.192Z,27.9
2023-03-10T04:22:36.181Z,27.9
2023-03-10T04:28:14.537Z,27.9
2023-03-10T04:34:01.324Z,27.9
2023-03-10T04:39:53.948Z,27.9
2023-03-10T04:45:42.655Z,27.9
2023-03-10T04:51:19.010Z,27.9
2023-03-10T05:02:42.649Z,27.9
2023-03-10T05:08:37.432Z,27.9
2023-03-10T05:14:29.315Z,27.9
2023-03-10T05:20:22.436Z,27.9
2023-03-10T05:25:59.959Z,27.9
2023-03-10T05:31:23.098Z,27.9
2023-03-10T05:37:00.466Z,28
2023-03-10T05:42:37.601Z,28.1
2023-03-10T05:48:30.482Z,28
2023-03-10T05:54:10.565Z,28.1
2023-03-10T06:00:02.842Z,28
2023-03-10T06:05:44.232Z,28
2023-03-10T06:11:37.880Z,28
2023-03-10T06:17:31.040Z,27.9
2023-03-10T06:23:24.573Z,27.9
2023-03-10T06:29:17.134Z,27.9
2023-03-10T06:35:10.330Z,27.9
2023-03-10T06:40:33.754Z,27.9
2023-03-10T06:46:12.870Z,27.9
2023-03-10T07:08:43.118Z,27.8
2023-03-10T07:14:22.337Z,27.8
2023-03-10T07:20:16.242Z,27.7
2023-03-10T07:25:54.326Z,27.8
2023-03-10T07:31:47.764Z,27.7
2023-03-10T07:37:40.448Z,27.7
2023-03-10T07:43:34.381Z,27.7
2023-03-10T07:49:27.393Z,27.6
2023-03-10T07:55:05.341Z,27.6
2023-03-10T08:00:42.334Z,27.6
2023-03-10T08:06:37.046Z,35.1
2023-03-10T08:12:29.827Z,34.1
2023-03-10T08:18:08.363Z,32.8
2023-03-10T08:23:46.151Z,31.8
2023-03-10T08:29:24.733Z,31.1
2023-03-10T08:41:20.484Z,29.9
2023-03-10T08:47:21.111Z,27.4
2023-03-10T08:52:59.247Z,33.9
2023-03-10T08:58:39.797Z,36.3
2023-03-10T09:04:37.529Z,37.3
2023-03-10T09:10:29.330Z,38.9
2023-03-10T09:16:36.927Z,36.9
2023-03-10T09:22:33.241Z,36.1
2023-03-10T09:28:26.401Z,35.6
2023-03-10T09:34:18.609Z,35.4
2023-03-10T09:40:24.435Z,35.3
2023-03-10T09:46:33.190Z,34.8
2023-03-10T09:52:24.208Z,34.7
2023-03-10T09:58:27.687Z,34.5
2023-03-10T10:04:26.523Z,34
2023-03-10T10:10:33.437Z,33.7
2023-03-10T10:17:14.218Z,33.6
2023-03-10T10:23:31.767Z,33.4
2023-03-10T10:29:26.167Z,33.2
2023-03-10T10:35:24.720Z,32.7
2023-03-10T10:41:24.309Z,32.3
2023-03-10T10:47:02.171Z,32
2023-03-10T10:52:40.315Z,31.8
2023-03-10T10:58:34.419Z,31.6
2023-03-10T11:04:27.030Z,31.3
2023-03-10T11:10:20.077Z,30.9
2023-03-10T11:15:57.685Z,30.6
2023-03-10T11:21:37.003Z,30.3
2023-03-10T11:27:29.808Z,29.8
2023-03-10T11:33:23.761Z,29.5
2023-03-10T11:45:02.333Z,28.9
2023-03-10T11:50:54.009Z,28.5
2023-03-10T11:56:46.134Z,28.3
2023-03-10T12:02:40.483Z,28
2023-03-10T12:14:11.960Z,27.6
2023-03-10T12:20:05.961Z,27.5
2023-03-10T12:25:57.570Z,27.5
2023-03-10T12:31:49.929Z,27.4
2023-03-10T12:37:44.373Z,27.3
2023-03-10T12:43:22.166Z,27.1
2023-03-10T12:49:15.763Z,26.9
2023-03-10T12:55:09.981Z,26.8
2023-03-10T13:01:03.907Z,26.6
2023-03-10T13:06:47.896Z,26.6
2023-03-10T13:12:25.722Z,26.6
2023-03-10T13:18:04.209Z,26.3
2023-03-10T13:29:20.525Z,25.8
2023-03-10T13:35:13.889Z,25.8
2023-03-10T13:40:49.817Z,25.8
2023-03-10T13:46:40.845Z,25.9
2023-03-10T13:52:32.395Z,26.1
2023-03-10T13:58:24.277Z,26.8
2023-03-10T14:04:20.241Z,26.6
2023-03-10T14:10:14.099Z,26.5
2023-03-10T14:16:07.322Z,27.1
2023-03-10T14:21:29.380Z,29.5
2023-03-10T14:32:14.967Z,27.5
2023-03-10T14:37:56.123Z,26.6
2023-03-10T14:43:49.161Z,26.3
2023-03-10T14:49:44.611Z,25.7
2023-03-10T14:55:48.660Z,25.3
2023-03-10T15:01:41.637Z,24.8
2023-03-10T15:07:43.621Z,24.6
2023-03-10T15:13:48.258Z,24.3
2023-03-10T15:19:42.066Z,24.1
2023-03-10T15:25:18.693Z,24
2023-03-10T15:31:10.902Z,23.9
2023-03-10T15:37:06.547Z,23.8
2023-03-10T15:43:12.015Z,23.7
2023-03-10T15:49:06.046Z,23.6
2023-03-10T15:54:58.924Z,23.6
2023-03-10T16:00:51.387Z,23.5
2023-03-10T16:06:43.917Z,23.4
2023-03-10T16:12:37.107Z,23.4
2023-03-10T16:18:30.513Z,23.4
2023-03-10T16:24:07.727Z,23.3
2023-03-10T16:29:46.267Z,23.3
2023-03-10T16:35:38.666Z,23.3
2023-03-10T16:41:32.325Z,23.3
2023-03-10T16:57:21.890Z,23.1
2023-03-10T17:03:00.136Z,23
2023-03-10T17:08:45.708Z,22.9
2023-03-10T17:14:41.940Z,22.9
2023-03-10T17:20:35.887Z,22.8
2023-03-10T17:26:14.892Z,22.7
2023-03-10T17:32:08.881Z,22.6
2023-03-10T17:38:01.434Z,22.6
2023-03-10T17:44:07.815Z,22.6
2023-03-10T17:50:00.521Z,22.5
2023-03-10T17:55:38.304Z,22.4
2023-03-10T18:01:31.107Z,22.4
2023-03-10T18:07:27.008Z,22.4
2023-03-10T18:13:19.421Z,22.4
2023-03-10T18:19:11.428Z,22.3
2023-03-10T18:24:48.600Z,22.3
2023-03-10T18:30:41.703Z,22.3
2023-03-10T18:36:34.951Z,22.3
2023-03-10T18:42:28.702Z,22.3
2023-03-10T18:48:20.745Z,22.3
2023-03-10T18:53:57.618Z,22.3
2023-03-10T18:59:50.388Z,22.2
2023-03-10T19:05:27.915Z,22.2
2023-03-10T19:11:21.774Z,22.1
2023-03-10T19:17:15.297Z,22.1
2023-03-10T19:23:08.513Z,22.1
2023-03-10T19:29:01.945Z,22.1
2023-03-10T19:34:39.455Z,22.1
2023-03-10T19:40:17.335Z,22
2023-03-10T19:45:54.601Z,22
2023-03-10T19:51:48.125Z,21.9
2023-03-10T19:57:25.756Z,21.9
2023-03-10T20:03:04.114Z,21.9
2023-03-10T20:08:42.316Z,21.9
2023-03-10T20:14:34.761Z,21.9
2023-03-10T20:20:27.241Z,21.9
2023-03-10T20:25:48.550Z,21.9
2023-03-10T20:31:41.982Z,22
2023-03-10T20:37:18.468Z,22.1
2023-03-10T20:42:56.917Z,22.4
2023-03-10T20:48:50.632Z,22.7
2023-03-10T20:54:43.191Z,23.3
2023-03-10T21:00:36.059Z,23.8
2023-03-10T21:06:14.545Z,24.4
2023-03-10T21:12:06.814Z,25.1
2023-03-10T21:17:44.909Z,25.7
2023-03-10T21:23:23.930Z,26.1
2023-03-10T21:28:30.576Z,26.3
2023-03-10T21:34:23.521Z,26.4
2023-03-10T21:40:16.628Z,26.5
2023-03-10T21:46:08.731Z,26.6
2023-03-10T21:52:01.729Z,26.6
2023-03-10T21:57:55.569Z,26.7
2023-03-10T22:09:09.069Z,26.8
2023-03-10T22:15:01.801Z,26.8
2023-03-10T22:20:38.060Z,26.8
2023-03-10T22:26:30.491Z,26.8
2023-03-10T22:32:23.745Z,26.8
2023-03-10T22:38:16.047Z,26.8
2023-03-10T22:43:37.787Z,26.8
2023-03-10T22:49:00.159Z,26.8
2023-03-10T22:54:53.082Z,26.8
2023-03-10T23:05:52.727Z,26.8
2023-03-10T23:11:29.256Z,26.8
2023-03-10T23:17:35.514Z,26.8
2023-03-10T23:23:13.338Z,26.8
2023-03-10T23:29:06.099Z,26.8
2023-03-10T23:34:59.340Z,26.8
2023-03-10T23:40:20.878Z,26.8
2023-03-10T23:45:43.022Z,26.7
2023-03-10T23:51:21.372Z,26.7
2023-03-10T23:56:58.815Z,26.7
